createdAt,value
2023-01-19T00:00:30.840Z,97015.69
2023-01-19T00:02:57.379Z,97008.38
2023-01-19T00:05:23.763Z,97012.97
2023-01-19T00:07:50.224Z,97010.84
2023-01-19T00:10:17.056Z,97012.34
2023-01-19T00:12:43.439Z,97022.31
2023-01-19T00:15:10.336Z,97018.41
2023-01-19T00:17:36.831Z,97014.34
2023-01-19T00:20:04.027Z,97014.69
2023-01-19T00:22:30.394Z,97015.34
2023-01-19T00:24:56.842Z,97015.88
2023-01-19T00:27:23.316Z,97011.78
2023-01-19T00:29:49.634Z,97013.59
2023-01-19T00:32:16.169Z,97021.75
2023-01-19T00:34:42.586Z,97011.47
2023-01-19T00:37:09.915Z,97020.28
2023-01-19T00:39:36.297Z,97015.88
2023-01-19T00:42:03.530Z,97021.25
2023-01-19T00:44:29.880Z,97024.22
2023-01-19T00:46:56.305Z,97022.09
2023-01-19T00:49:22.643Z,97025.88
2023-01-19T00:51:48.959Z,97024.56
2023-01-19T00:54:15.506Z,97024.88
2023-01-19T00:56:41.870Z,97027.00
2023-01-19T00:59:08.239Z,97027.34
2023-01-19T01:01:44.995Z,97033.72
2023-01-19T01:04:11.976Z,97033.25
2023-01-19T01:06:38.351Z,97036.19
2023-01-19T01:09:04.822Z,97046.81
2023-01-19T01:11:31.187Z,97048.94
2023-01-19T01:13:57.553Z,97056.75
2023-01-19T01:16:25.348Z,97057.91
2023-01-19T01:18:51.878Z,97060.81
2023-01-19T01:21:18.235Z,97067.34
2023-01-19T01:23:44.567Z,97071.09
2023-01-19T01:26:10.912Z,97076.50
2023-01-19T01:28:37.459Z,97077.47
2023-01-19T01:31:04.008Z,97078.44
2023-01-19T01:33:41.045Z,97079.44
2023-01-19T01:36:09.059Z,97086.44
2023-01-19T01:38:35.443Z,97087.09
2023-01-19T01:41:01.763Z,97087.25
2023-01-19T01:43:51.525Z,97091.00
2023-01-19T01:46:18.992Z,97091.19
2023-01-19T01:49:04.197Z,97096.41
2023-01-19T01:51:37.350Z,97100.16
2023-01-19T01:54:16.651Z,97095.09
2023-01-19T01:56:46.600Z,97091.50
2023-01-19T01:59:18.249Z,97093.47
2023-01-19T02:01:44.792Z,97090.97
2023-01-19T02:04:11.246Z,97096.38
2023-01-19T02:06:37.723Z,97086.09
2023-01-19T02:09:08.653Z,97085.44
2023-01-19T02:11:36.026Z,97088.22
2023-01-19T02:14:05.572Z,97086.75
2023-01-19T02:16:32.365Z,97088.69
2023-01-19T02:18:58.691Z,97087.22
2023-01-19T02:21:52.352Z,97082.16
2023-01-19T02:24:19.003Z,97083.31
2023-01-19T02:26:47.597Z,97077.44
2023-01-19T02:29:20.102Z,97082.81
2023-01-19T02:31:46.897Z,97085.28
2023-01-19T02:34:16.762Z,97081.19
2023-01-19T02:36:51.892Z,97086.03
2023-01-19T02:39:22.579Z,97088.50
2023-01-19T02:41:53.524Z,97093.38
2023-01-19T02:44:22.477Z,97090.25
2023-01-19T02:46:48.888Z,97097.72
2023-01-19T02:49:15.266Z,97097.38
2023-01-19T02:51:43.921Z,97097.72
2023-01-19T02:54:41.571Z,97095.56
2023-01-19T02:57:43.344Z,97106.66
2023-01-19T03:00:35.378Z,97113.44
2023-01-19T03:03:16.210Z,97111.31
2023-01-19T03:05:54.354Z,97116.16
2023-01-19T03:08:47.902Z,97115.50
2023-01-19T03:11:14.638Z,97114.69
2023-01-19T03:14:03.683Z,97122.50
2023-01-19T03:16:38.313Z,97117.97
2023-01-19T03:19:15.243Z,97128.03
2023-01-19T03:21:47.333Z,97125.75
2023-01-19T03:24:16.124Z,97130.97
2023-01-19T03:26:51.597Z,97130.59
2023-01-19T03:29:21.850Z,97127.47
2023-01-19T03:31:53.043Z,97127.31
2023-01-19T03:34:20.859Z,97128.94
2023-01-19T03:36:53.503Z,97131.56
2023-01-19T03:39:23.640Z,97128.44
2023-01-19T03:41:54.876Z,97137.91
2023-01-19T03:44:22.289Z,97140.66
2023-01-19T03:46:48.628Z,97138.22
2023-01-19T03:49:15.145Z,97147.16
2023-01-19T03:51:41.684Z,97148.13
2023-01-19T03:54:10.663Z,97155.94
2023-01-19T03:56:37.322Z,97155.28
2023-01-19T03:59:04.010Z,97151.84
2023-01-19T04:01:30.405Z,97147.31
2023-01-19T04:03:56.968Z,97154.16
2023-01-19T04:06:23.740Z,97151.38
2023-01-19T04:08:51.128Z,97148.78
2023-01-19T04:11:17.991Z,97161.81
2023-01-19T04:13:44.613Z,97160.34
2023-01-19T04:16:11.684Z,97159.81
2023-01-19T04:18:38.246Z,97158.34
2023-01-19T04:21:07.157Z,97154.78
2023-01-19T04:23:33.778Z,97153.94
2023-01-19T04:26:02.163Z,97145.31
2023-01-19T04:28:28.715Z,97150.38
2023-01-19T04:30:55.164Z,97146.13
2023-01-19T04:33:21.801Z,97157.38
2023-01-19T04:35:49.639Z,97155.75
2023-01-19T04:38:16.591Z,97151.50
2023-01-19T04:40:42.861Z,97145.97
2023-01-19T04:43:09.273Z,97146.50
2023-01-19T04:45:35.549Z,97144.69
2023-01-19T04:48:01.987Z,97147.31
2023-01-19T04:50:28.373Z,97152.53
2023-01-19T04:52:54.736Z,97152.53
2023-01-19T04:55:21.075Z,97161.16
2023-01-19T04:57:47.364Z,97152.66
2023-01-19T05:00:14.164Z,97160.78
2023-01-19T05:02:40.696Z,97150.53
2023-01-19T05:05:07.251Z,97147.09
2023-01-19T05:07:33.592Z,97155.91
2023-01-19T05:09:59.952Z,97162.91
2023-01-19T05:12:26.286Z,97163.56
2023-01-19T05:14:52.575Z,97165.84
2023-01-19T05:17:18.888Z,97157.56
2023-01-19T05:19:45.162Z,97162.31
2023-01-19T05:22:11.477Z,97167.88
2023-01-19T05:24:37.812Z,97163.31
2023-01-19T05:27:04.111Z,97170.31
2023-01-19T05:29:30.809Z,97161.53
2023-01-19T05:31:57.464Z,97172.94
2023-01-19T05:34:24.123Z,97169.50
2023-01-19T05:36:50.474Z,97173.75
2023-01-19T05:39:17.013Z,97168.53
2023-01-19T05:41:43.278Z,97171.97
2023-01-19T05:44:09.887Z,97169.34
2023-01-19T05:46:36.293Z,97169.34
2023-01-19T05:49:02.642Z,97178.97
2023-01-19T05:51:28.888Z,97167.88
2023-01-19T05:53:55.180Z,97176.50
2023-01-19T05:56:21.475Z,97180.91
2023-01-19T05:58:47.845Z,97181.88
2023-01-19T06:01:14.171Z,97172.44
2023-01-19T06:03:40.498Z,97169.97
2023-01-19T06:06:07.067Z,97170.78
2023-01-19T06:08:33.529Z,97174.53
2023-01-19T06:10:59.841Z,97179.91
2023-01-19T06:13:26.563Z,97175.00
2023-01-19T06:16:00.264Z,97174.63
2023-01-19T06:18:27.628Z,97181.94
2023-01-19T06:20:54.034Z,97187.81
2023-01-19T06:23:20.338Z,97184.25
2023-01-19T06:25:48.913Z,97186.19
2023-01-19T06:28:15.196Z,97191.53
2023-01-19T06:30:41.504Z,97191.81
2023-01-19T06:33:08.011Z,97199.13
2023-01-19T06:35:34.331Z,97201.72
2023-01-19T06:38:00.608Z,97205.00
2023-01-19T06:40:27.031Z,97206.63
2023-01-19T06:42:53.304Z,97207.44
2023-01-19T06:45:19.617Z,97213.34
2023-01-19T06:47:47.801Z,97214.16
2023-01-19T06:50:14.193Z,97209.78
2023-01-19T06:52:40.446Z,97201.81
2023-01-19T06:55:07.051Z,97206.06
2023-01-19T06:57:33.355Z,97212.09
2023-01-19T06:59:59.648Z,97208.50
2023-01-19T07:02:28.556Z,97207.38
2023-01-19T07:04:56.336Z,97212.44
2023-01-19T07:07:22.662Z,97214.44
2023-01-19T07:09:49.101Z,97212.34
2023-01-19T07:12:19.956Z,97206.69
2023-01-19T07:14:46.275Z,97206.53
2023-01-19T07:17:12.634Z,97212.41
2023-01-19T07:19:38.997Z,97211.28
2023-01-19T07:22:05.273Z,97215.69
2023-01-19T07:24:31.525Z,97208.81
2023-01-19T07:26:57.830Z,97213.22
2023-01-19T07:29:24.106Z,97215.00
2023-01-19T07:31:50.522Z,97215.69
2023-01-19T07:34:16.937Z,97220.41
2023-01-19T07:36:43.232Z,97228.44
2023-01-19T07:39:09.505Z,97235.50
2023-01-19T07:41:35.788Z,97226.91
2023-01-19T07:44:02.086Z,97225.16
2023-01-19T07:46:28.404Z,97231.09
2023-01-19T07:48:54.718Z,97232.91
2023-01-19T07:51:21.008Z,97237.34
2023-01-19T07:53:49.772Z,97238.06
2023-01-19T07:56:16.189Z,97235.31
2023-01-19T07:58:42.774Z,97244.03
2023-01-19T08:01:11.874Z,97246.66
2023-01-19T08:03:38.641Z,97244.38
2023-01-19T08:06:05.835Z,97247.31
2023-01-19T08:08:33.579Z,97256.19
2023-01-19T08:11:00.263Z,97258.16
2023-01-19T08:13:27.138Z,97258.31
2023-01-19T08:15:53.913Z,97262.56
2023-01-19T08:18:21.065Z,97259.00
2023-01-19T08:20:47.460Z,97266.84
2023-01-19T08:23:13.738Z,97273.75
2023-01-19T08:25:43.884Z,97267.38
2023-01-19T08:28:11.360Z,97274.22
2023-01-19T08:30:38.628Z,97274.41
2023-01-19T08:33:04.998Z,97276.53
2023-01-19T08:35:32.355Z,97272.63
2023-01-19T08:37:59.442Z,97270.00
2023-01-19T08:40:25.719Z,97273.78
2023-01-19T08:42:52.032Z,97279.31
2023-01-19T08:45:18.303Z,97278.16
2023-01-19T08:47:44.632Z,97282.72
2023-01-19T08:50:11.292Z,97282.09
2023-01-19T08:52:37.574Z,97289.44
2023-01-19T08:55:04.276Z,97295.50
2023-01-19T08:57:30.661Z,97299.06
2023-01-19T08:59:56.928Z,97301.03
2023-01-19T09:02:23.271Z,97305.09
2023-01-19T09:04:49.583Z,97305.75
2023-01-19T09:07:15.920Z,97320.97
2023-01-19T09:09:42.227Z,97308.19
2023-01-19T09:12:08.594Z,97316.19
2023-01-19T09:14:34.864Z,97314.72
2023-01-19T09:17:01.137Z,97316.19
2023-01-19T09:19:27.445Z,97313.06
2023-01-19T09:21:54.385Z,97313.03
2023-01-19T09:24:20.842Z,97317.25
2023-01-19T09:26:47.149Z,97323.16
2023-01-19T09:29:13.432Z,97321.34
2023-01-19T09:31:39.940Z,97317.56
2023-01-19T09:34:06.776Z,97319.00
2023-01-19T09:36:33.121Z,97327.16
2023-01-19T09:38:59.440Z,97321.75
2023-01-19T09:41:26.251Z,97325.03
2023-01-19T09:43:59.074Z,97328.16
2023-01-19T09:46:34.965Z,97335.63
2023-01-19T09:49:05.243Z,97342.31
2023-01-19T09:51:36.573Z,97330.50
2023-01-19T09:54:29.711Z,97324.78
2023-01-19T09:56:56.089Z,97321.47
2023-01-19T09:59:26.650Z,97321.75
2023-01-19T10:01:58.778Z,97319.59
2023-01-19T10:04:36.552Z,97315.81
2023-01-19T10:07:15.989Z,97309.22
2023-01-19T10:10:17.679Z,97312.28
2023-01-19T10:12:51.218Z,97307.44
2023-01-19T10:15:42.252Z,97320.16
2023-01-19T10:18:19.770Z,97319.00
2023-01-19T10:20:55.163Z,97312.69
2023-01-19T10:23:38.342Z,97313.72
2023-01-19T10:26:10.029Z,97316.09
2023-01-19T10:28:38.499Z,97308.81
2023-01-19T10:31:05.980Z,97316.69
2023-01-19T10:33:33.711Z,97318.53
2023-01-19T10:36:04.236Z,97314.91
2023-01-19T10:38:31.870Z,97314.81
2023-01-19T10:41:19.153Z,97312.91
2023-01-19T10:43:47.411Z,97314.53
2023-01-19T10:46:31.853Z,97315.47
2023-01-19T10:48:58.250Z,97316.25
2023-01-19T10:51:24.648Z,97316.84
2023-01-19T10:54:00.977Z,97314.97
2023-01-19T10:56:31.666Z,97311.66
2023-01-19T10:58:59.773Z,97310.16
2023-01-19T11:01:28.226Z,97314.28
2023-01-19T11:03:55.181Z,97316.09
2023-01-19T11:06:26.240Z,97310.31
2023-01-19T11:08:54.150Z,97306.59
2023-01-19T11:11:23.138Z,97306.75
2023-01-19T11:14:10.953Z,97307.81
2023-01-19T11:16:37.771Z,97299.25
2023-01-19T11:19:04.411Z,97293.81
2023-01-19T11:21:32.452Z,97301.16
2023-01-19T11:24:04.796Z,97301.50
2023-01-19T11:26:40.912Z,97287.34
2023-01-19T11:29:16.564Z,97295.72
2023-01-19T11:31:43.770Z,97305.59
2023-01-19T11:34:33.034Z,97294.69
2023-01-19T11:37:05.186Z,97298.78
2023-01-19T11:39:44.727Z,97291.59
2023-01-19T11:42:13.211Z,97288.88
2023-01-19T11:44:51.420Z,97288.94
2023-01-19T11:47:45.880Z,97282.16
2023-01-19T11:50:15.613Z,97289.38
2023-01-19T11:52:51.997Z,97279.50
2023-01-19T11:55:32.756Z,97276.13
2023-01-19T11:57:59.722Z,97275.53
2023-01-19T12:00:45.107Z,97276.19
2023-01-19T12:03:21.063Z,97276.22
2023-01-19T12:05:51.479Z,97277.09
2023-01-19T12:08:27.946Z,97268.75
2023-01-19T12:10:57.255Z,97277.00
2023-01-19T12:13:26.212Z,97273.56
2023-01-19T12:16:00.798Z,97278.31
2023-01-19T12:18:33.742Z,97280.41
2023-01-19T12:21:01.901Z,97280.50
2023-01-19T12:23:29.947Z,97278.97
2023-01-19T12:26:22.351Z,97277.28
2023-01-19T12:28:51.141Z,97286.91
2023-01-19T12:31:19.639Z,97281.72
2023-01-19T12:33:46.453Z,97282.78
2023-01-19T12:36:30.884Z,97280.16
2023-01-19T12:39:02.341Z,97280.25
2023-01-19T12:41:36.383Z,97287.97
2023-01-19T12:44:11.811Z,97285.78
2023-01-19T12:46:47.489Z,97286.59
2023-01-19T12:49:27.714Z,97288.78
2023-01-19T12:52:16.205Z,97276.44
2023-01-19T12:55:14.418Z,97277.66
2023-01-19T12:57:47.123Z,97275.88
2023-01-19T13:00:22.349Z,97276.63
2023-01-19T13:02:57.919Z,97271.25
2023-01-19T13:05:32.495Z,97266.28
2023-01-19T13:08:02.312Z,97267.94
2023-01-19T13:11:02.598Z,97261.47
2023-01-19T13:13:38.905Z,97269.16
2023-01-19T13:16:20.538Z,97263.47
2023-01-19T13:18:52.433Z,97265.09
2023-01-19T13:21:44.301Z,97269.09
2023-01-19T13:24:20.576Z,97273.56
2023-01-19T13:26:49.614Z,97274.31
2023-01-19T13:29:37.160Z,97270.63
2023-01-19T13:32:10.809Z,97270.19
2023-01-19T13:34:42.547Z,97278.91
2023-01-19T13:37:18.729Z,97279.53
2023-01-19T13:39:46.412Z,97272.22
2023-01-19T13:42:20.888Z,97282.50
2023-01-19T13:44:49.344Z,97278.16
2023-01-19T13:47:21.355Z,97274.56
2023-01-19T13:49:50.565Z,97274.78
2023-01-19T13:52:22.739Z,97271.59
2023-01-19T13:54:56.754Z,97273.06
2023-01-19T13:57:40.548Z,97275.31
2023-01-19T14:00:09.904Z,97275.88
2023-01-19T14:02:36.389Z,97277.94
2023-01-19T14:05:28.227Z,97275.69
2023-01-19T14:08:03.589Z,97285.69
2023-01-19T14:10:30.231Z,97287.34
2023-01-19T14:13:00.124Z,97281.69
2023-01-19T14:15:27.870Z,97284.91
2023-01-19T14:18:18.869Z,97287.84
2023-01-19T14:20:55.775Z,97284.38
2023-01-19T14:23:40.812Z,97286.38
2023-01-19T14:26:41.835Z,97283.13
2023-01-19T14:29:31.750Z,97290.84
2023-01-19T14:32:23.070Z,97283.31
2023-01-19T14:34:58.364Z,97287.16
2023-01-19T14:37:28.919Z,97282.00
2023-01-19T14:40:00.882Z,97288.09
2023-01-19T14:42:35.696Z,97284.00
2023-01-19T14:45:07.814Z,97291.47
2023-01-19T14:47:40.561Z,97291.44
2023-01-19T14:50:20.237Z,97293.44
2023-01-19T14:52:55.050Z,97294.25
2023-01-19T14:55:52.394Z,97290.75
2023-01-19T14:58:21.009Z,97304.72
2023-01-19T15:00:48.233Z,97303.72
2023-01-19T15:03:15.355Z,97302.81
2023-01-19T15:05:46.602Z,97302.19
2023-01-19T15:08:17.374Z,97299.13
2023-01-19T15:10:44.565Z,97301.56
2023-01-19T15:13:18.071Z,97303.63
2023-01-19T15:15:44.340Z,97300.00
2023-01-19T15:18:15.492Z,97299.38
2023-01-19T15:20:41.833Z,97301.94
2023-01-19T15:23:10.490Z,97302.91
2023-01-19T15:25:37.413Z,97298.00
2023-01-19T15:28:13.799Z,97303.19
2023-01-19T15:30:40.233Z,97296.66
2023-01-19T15:33:06.728Z,97304.31
2023-01-19T15:35:33.147Z,97302.06
2023-01-19T15:37:59.914Z,97302.69
2023-01-19T15:40:26.300Z,97308.84
2023-01-19T15:42:52.636Z,97298.50
2023-01-19T15:45:38.340Z,97297.50
2023-01-19T15:48:09.124Z,97307.22
2023-01-19T15:50:40.784Z,97302.97
2023-01-19T15:53:10.706Z,97307.91
2023-01-19T15:55:36.999Z,97309.34
2023-01-19T15:58:03.293Z,97309.75
2023-01-19T16:00:31.518Z,97308.38
2023-01-19T16:02:58.573Z,97311.94
2023-01-19T16:05:37.474Z,97302.84
2023-01-19T16:08:08.579Z,97311.00
2023-01-19T16:10:35.242Z,97311.28
2023-01-19T16:13:01.653Z,97311.53
2023-01-19T16:15:27.931Z,97314.88
2023-01-19T16:17:54.204Z,97313.28
2023-01-19T16:20:20.593Z,97311.75
2023-01-19T16:22:46.904Z,97315.25
2023-01-19T16:25:13.235Z,97311.53
2023-01-19T16:27:39.517Z,97314.84
2023-01-19T16:30:06.503Z,97312.75
2023-01-19T16:32:33.438Z,97312.47
2023-01-19T16:34:59.935Z,97320.69
2023-01-19T16:37:27.997Z,97321.03
2023-01-19T16:39:54.457Z,97311.06
2023-01-19T16:42:20.828Z,97318.28
2023-01-19T16:44:47.159Z,97320.44
2023-01-19T16:47:13.444Z,97325.22
2023-01-19T16:49:40.093Z,97326.03
2023-01-19T16:52:06.384Z,97323.25
2023-01-19T16:54:32.679Z,97325.03
2023-01-19T16:56:59.403Z,97324.06
2023-01-19T16:59:26.077Z,97327.31
2023-01-19T17:01:53.595Z,97326.16
2023-01-19T17:04:22.277Z,97323.16
2023-01-19T17:06:48.676Z,97325.13
2023-01-19T17:09:15.374Z,97324.25
2023-01-19T17:11:42.333Z,97334.66
2023-01-19T17:14:12.739Z,97329.56
2023-01-19T17:16:39.574Z,97328.84
2023-01-19T17:19:06.931Z,97327.94
2023-01-19T17:21:34.024Z,97334.13
2023-01-19T17:24:00.902Z,97331.78
2023-01-19T17:26:28.935Z,97332.88
2023-01-19T17:29:02.069Z,97334.16
2023-01-19T17:31:29.240Z,97335.44
2023-01-19T17:33:56.001Z,97346.75
2023-01-19T17:36:23.837Z,97343.31
2023-01-19T17:38:50.072Z,97346.38
2023-01-19T17:41:17.515Z,97352.31
2023-01-19T17:43:44.500Z,97358.19
2023-01-19T17:46:11.750Z,97351.94
2023-01-19T17:48:38.744Z,97351.13
2023-01-19T17:51:07.056Z,97354.94
2023-01-19T17:53:34.053Z,97353.41
2023-01-19T17:56:08.818Z,97355.22
2023-01-19T17:58:35.547Z,97356.19
2023-01-19T18:01:13.189Z,97356.19
2023-01-19T18:03:40.446Z,97360.81
2023-01-19T18:06:07.408Z,97353.81
2023-01-19T18:08:34.550Z,97359.41
2023-01-19T18:11:02.056Z,97366.94
2023-01-19T18:13:29.032Z,97366.47
2023-01-19T18:16:08.191Z,97369.28
2023-01-19T18:18:35.530Z,97365.50
2023-01-19T18:21:04.820Z,97371.84
2023-01-19T18:23:31.183Z,97364.44
2023-01-19T18:25:59.106Z,97367.53
2023-01-19T18:28:25.540Z,97366.34
2023-01-19T18:30:52.053Z,97365.53
2023-01-19T18:33:18.396Z,97363.53
2023-01-19T18:35:45.421Z,97370.25
2023-01-19T18:38:11.854Z,97363.00
2023-01-19T18:40:38.169Z,97370.53
2023-01-19T18:43:04.486Z,97370.69
2023-01-19T18:45:30.817Z,97368.44
2023-01-19T18:47:57.137Z,97361.72
2023-01-19T18:50:23.537Z,97366.88
2023-01-19T18:52:49.921Z,97366.72
2023-01-19T18:55:16.409Z,97366.63
2023-01-19T18:57:42.695Z,97365.91
2023-01-19T19:00:09.792Z,97364.72
2023-01-19T19:02:36.085Z,97365.38
2023-01-19T19:05:02.412Z,97363.72
2023-01-19T19:07:29.067Z,97365.53
2023-01-19T19:09:55.520Z,97364.72
2023-01-19T19:12:21.857Z,97363.09
2023-01-19T19:14:48.215Z,97369.53
2023-01-19T19:17:14.588Z,97365.91
2023-01-19T19:19:40.909Z,97366.44
2023-01-19T19:22:07.212Z,97366.81
2023-01-19T19:24:33.501Z,97364.25
2023-01-19T19:26:59.820Z,97373.31
2023-01-19T19:29:26.119Z,97372.31
2023-01-19T19:31:52.534Z,97369.69
2023-01-19T19:34:18.852Z,97370.03
2023-01-19T19:36:45.994Z,97372.00
2023-01-19T19:39:12.405Z,97375.63
2023-01-19T19:41:38.713Z,97373.66
2023-01-19T19:44:05.265Z,97374.47
2023-01-19T19:46:31.616Z,97373.31
2023-01-19T19:48:58.158Z,97380.19
2023-01-19T19:51:27.140Z,97382.00
2023-01-19T19:53:59.828Z,97379.19
2023-01-19T19:56:28.915Z,97378.38
2023-01-19T19:58:56.934Z,97382.00
2023-01-19T20:01:29.971Z,97386.09
2023-01-19T20:03:58.776Z,97384.28
2023-01-19T20:06:26.761Z,97381.84
2023-01-19T20:08:55.828Z,97380.03
2023-01-19T20:11:25.791Z,97381.84
2023-01-19T20:13:52.720Z,97387.53
2023-01-19T20:16:21.689Z,97389.00
2023-01-19T20:18:50.079Z,97390.44
2023-01-19T20:21:28.263Z,97391.91
2023-01-19T20:23:56.293Z,97394.34
2023-01-19T20:26:26.815Z,97392.53
2023-01-19T20:28:54.139Z,97393.06
2023-01-19T20:31:42.300Z,97397.78
2023-01-19T20:34:10.794Z,97398.91
2023-01-19T20:36:37.470Z,97397.47
2023-01-19T20:39:05.937Z,97398.16
2023-01-19T20:41:32.190Z,97399.69
2023-01-19T20:43:58.480Z,97399.69
2023-01-19T20:46:24.805Z,97401.97
2023-01-19T20:48:51.166Z,97401.97
2023-01-19T20:51:17.751Z,97398.81
2023-01-19T20:53:44.234Z,97401.72
2023-01-19T20:56:12.459Z,97397.13
2023-01-19T20:58:40.217Z,97405.66
2023-01-19T21:01:15.927Z,97411.81
2023-01-19T21:03:42.510Z,97409.19
2023-01-19T21:06:09.165Z,97409.00
2023-01-19T21:08:35.944Z,97409.81
2023-01-19T21:11:03.226Z,97406.22
2023-01-19T21:13:29.509Z,97408.03
2023-01-19T21:15:56.018Z,97419.16
2023-01-19T21:18:22.295Z,97417.06
2023-01-19T21:20:49.040Z,97418.69
2023-01-19T21:23:15.757Z,97420.06
2023-01-19T21:26:08.333Z,97420.22
2023-01-19T21:28:34.622Z,97417.97
2023-01-19T21:31:12.539Z,97419.59
2023-01-19T21:33:42.604Z,97415.78
2023-01-19T21:36:10.639Z,97427.28
2023-01-19T21:38:37.976Z,97423.84
2023-01-19T21:41:09.423Z,97426.94
2023-01-19T21:43:37.506Z,97428.56
2023-01-19T21:46:20.456Z,97422.59
2023-01-19T21:48:47.390Z,97429.78
2023-01-19T21:51:14.849Z,97423.81
2023-01-19T21:53:41.320Z,97426.91
2023-01-19T21:56:09.209Z,97426.09
2023-01-19T21:58:35.745Z,97428.72
2023-01-19T22:01:07.236Z,97435.25
2023-01-19T22:03:33.753Z,97427.00
2023-01-19T22:06:05.913Z,97440.59
2023-01-19T22:08:32.737Z,97440.59
2023-01-19T22:11:12.681Z,97440.59
2023-01-19T22:13:39.744Z,97442.22
2023-01-19T22:16:09.209Z,97442.06
2023-01-19T22:18:36.512Z,97440.69
2023-01-19T22:21:09.671Z,97450.25
2023-01-19T22:23:36.360Z,97445.81
2023-01-19T22:26:02.820Z,97448.59
2023-01-19T22:28:29.125Z,97448.44
2023-01-19T22:31:01.683Z,97445.44
2023-01-19T22:33:28.492Z,97451.50
2023-01-19T22:35:54.823Z,97445.63
2023-01-19T22:38:21.130Z,97448.88
2023-01-19T22:40:47.432Z,97446.06
2023-01-19T22:43:13.722Z,97452.97
2023-01-19T22:45:40.763Z,97448.69
2023-01-19T22:48:07.186Z,97445.06
2023-01-19T22:50:34.979Z,97447.06
2023-01-19T22:53:01.253Z,97453.50
2023-01-19T22:55:29.714Z,97448.94
2023-01-19T22:57:55.994Z,97449.47
2023-01-19T23:00:22.277Z,97444.03
2023-01-19T23:02:48.650Z,97442.69
2023-01-19T23:05:15.365Z,97445.81
2023-01-19T23:07:41.867Z,97446.25
2023-01-19T23:10:08.975Z,97441.63
2023-01-19T23:12:35.250Z,97442.09
2023-01-19T23:15:01.536Z,97441.09
2023-01-19T23:17:27.889Z,97442.91
2023-01-19T23:19:54.169Z,97441.09
2023-01-19T23:22:20.441Z,97443.53
2023-01-19T23:24:46.732Z,97447.81
2023-01-19T23:27:12.997Z,97448.63
2023-01-19T23:29:39.266Z,97454.69
2023-01-19T23:32:05.700Z,97449.25
2023-01-19T23:34:31.978Z,97450.69
2023-01-19T23:36:58.248Z,97447.06
2023-01-19T23:39:24.636Z,97448.69
2023-01-19T23:41:50.910Z,97449.88
2023-01-19T23:44:17.896Z,97456.50
2023-01-19T23:46:44.471Z,97455.59
2023-01-19T23:49:11.927Z,97456.31
2023-01-19T23:51:39.130Z,97451.22
2023-01-19T23:54:05.541Z,97453.50
2023-01-19T23:56:34.696Z,97462.84
2023-01-19T23:59:04.618Z,97457.41
